createdAt,value
2022-10-14T00:01:22.081Z,30.15
2022-10-14T00:03:50.698Z,34.08
2022-10-14T00:06:23.289Z,32.92
2022-10-14T00:08:51.722Z,31.98
2022-10-14T00:11:23.490Z,31.70
2022-10-14T00:13:51.991Z,27.15
2022-10-14T00:16:23.406Z,32.33
2022-10-14T00:18:51.957Z,33.88
2022-10-14T00:21:20.912Z,34.63
2022-10-14T00:23:49.181Z,34.97
2022-10-14T00:26:19.753Z,34.05
2022-10-14T00:28:48.410Z,33.40
2022-10-14T00:31:17.033Z,32.80
2022-10-14T00:33:49.931Z,32.22
2022-10-14T00:36:19.765Z,34.10
2022-10-14T00:38:48.613Z,33.78
2022-10-14T00:41:19.574Z,35.35
2022-10-14T00:43:55.806Z,32.35
2022-10-14T00:46:23.994Z,31.85
2022-10-14T00:48:59.771Z,33.47
2022-10-14T00:51:28.386Z,32.58
2022-10-14T00:53:56.759Z,32.65
2022-10-14T00:56:29.651Z,35.47
2022-10-14T00:58:58.653Z,34.55
2022-10-14T01:01:27.148Z,32.67
2022-10-14T01:03:55.352Z,34.63
2022-10-14T01:06:40.154Z,33.67
2022-10-14T01:09:19.431Z,31.45
2022-10-14T01:12:23.542Z,32.70
2022-10-14T01:14:59.450Z,31.85
2022-10-14T01:17:39.994Z,33.55
2022-10-14T01:20:39.546Z,32.80
2022-10-14T01:23:43.127Z,33.88
2022-10-14T01:26:30.038Z,32.35
2022-10-14T01:29:10.399Z,36.30
2022-10-14T01:31:45.491Z,34.42
2022-10-14T01:34:17.183Z,37.28
2022-10-14T01:36:49.906Z,35.15
2022-10-14T01:39:22.858Z,36.85
2022-10-14T01:41:56.352Z,36.15
2022-10-14T01:44:26.956Z,33.40
2022-10-14T01:46:57.350Z,36.97
2022-10-14T01:49:31.384Z,39.95
2022-10-14T01:52:03.664Z,37.53
2022-10-14T01:54:35.382Z,38.13
2022-10-14T01:57:09.347Z,37.00
2022-10-14T01:59:39.932Z,36.67
2022-10-14T02:02:09.553Z,33.85
2022-10-14T02:04:37.796Z,36.40
2022-10-14T02:07:10.124Z,34.85
2022-10-14T02:09:44.890Z,38.15
2022-10-14T02:12:23.972Z,42.10
2022-10-14T02:14:56.011Z,41.85
2022-10-14T02:17:31.235Z,42.83
2022-10-14T02:20:05.512Z,41.70
2022-10-14T02:25:13.543Z,42.05
2022-10-14T02:27:43.956Z,42.00
2022-10-14T02:30:13.483Z,39.58
2022-10-14T02:32:43.911Z,41.40
2022-10-14T02:35:16.761Z,41.90
2022-10-14T02:37:48.998Z,41.50
2022-10-14T02:40:21.643Z,42.03
2022-10-14T02:42:49.737Z,44.63
2022-10-14T02:45:19.766Z,43.70
2022-10-14T02:47:49.256Z,40.78
2022-10-14T02:50:19.132Z,42.22
2022-10-14T02:52:47.205Z,42.30
2022-10-14T02:55:15.691Z,40.95
2022-10-14T02:57:45.497Z,43.20
2022-10-14T03:00:14.388Z,43.38
2022-10-14T03:02:43.937Z,41.35
2022-10-14T03:05:13.519Z,43.15
2022-10-14T03:07:41.620Z,44.30
2022-10-14T03:10:13.167Z,43.72
2022-10-14T03:12:41.287Z,41.17
2022-10-14T03:15:16.708Z,42.20
2022-10-14T03:17:44.918Z,43.97
2022-10-14T03:20:15.571Z,41.60
2022-10-14T03:22:49.092Z,43.05
2022-10-14T03:25:19.154Z,45.95
2022-10-14T03:28:10.617Z,43.28
2022-10-14T03:30:48.828Z,46.20
2022-10-14T03:33:29.844Z,44.08
2022-10-14T03:36:13.137Z,43.60
2022-10-14T03:38:46.541Z,43.90
2022-10-14T03:41:26.542Z,42.70
2022-10-14T03:43:54.800Z,47.60
2022-10-14T03:46:22.920Z,44.65
2022-10-14T03:48:52.233Z,45.30
2022-10-14T03:51:21.948Z,46.33
2022-10-14T03:53:50.530Z,41.35
2022-10-14T03:56:26.228Z,44.72
2022-10-14T03:58:55.293Z,44.85
2022-10-14T04:01:25.042Z,46.00
2022-10-14T04:04:11.323Z,45.85
2022-10-14T04:06:40.914Z,47.00
2022-10-14T04:09:09.999Z,47.08
2022-10-14T04:11:40.983Z,47.25
2022-10-14T04:14:15.133Z,47.25
2022-10-14T04:16:50.201Z,46.17
2022-10-14T04:19:19.376Z,44.38
2022-10-14T04:21:48.930Z,45.55
2022-10-14T04:24:20.269Z,48.20
2022-10-14T04:26:54.003Z,45.83
2022-10-14T04:29:29.848Z,46.63
2022-10-14T04:34:32.842Z,48.40
2022-10-14T04:37:02.271Z,52.78
2022-10-14T04:39:47.550Z,49.15
2022-10-14T04:42:15.543Z,50.67
2022-10-14T04:44:46.540Z,52.20
2022-10-14T04:47:16.065Z,52.20
2022-10-14T04:49:50.438Z,51.85
2022-10-14T04:52:23.610Z,50.10
2022-10-14T04:55:07.881Z,50.55
2022-10-14T04:57:43.174Z,49.55
2022-10-14T05:00:13.776Z,45.33
2022-10-14T05:02:54.932Z,51.72
2022-10-14T05:05:29.940Z,51.75
2022-10-14T05:08:02.272Z,52.03
2022-10-14T05:10:37.934Z,54.28
2022-10-14T05:13:09.793Z,54.13
2022-10-14T05:15:48.205Z,47.72
2022-10-14T05:18:16.684Z,53.78
2022-10-14T05:20:58.625Z,49.20
2022-10-14T05:23:32.173Z,51.55
2022-10-14T05:26:02.305Z,52.40
2022-10-14T05:28:31.124Z,50.78
2022-10-14T05:30:59.342Z,52.88
2022-10-14T05:33:27.811Z,46.13
2022-10-14T05:35:59.762Z,50.80
2022-10-14T05:38:34.576Z,49.05
2022-10-14T05:41:03.472Z,48.35
2022-10-14T05:43:32.913Z,50.13
2022-10-14T05:46:03.813Z,47.05
2022-10-14T05:48:36.977Z,48.90
2022-10-14T05:51:05.797Z,48.95
2022-10-14T05:53:39.818Z,51.53
2022-10-14T05:56:13.257Z,50.50
2022-10-14T05:58:42.097Z,45.13
2022-10-14T06:01:12.284Z,48.65
2022-10-14T06:03:42.648Z,49.47
2022-10-14T06:06:14.169Z,48.50
2022-10-14T06:08:44.929Z,47.15
2022-10-14T06:11:14.034Z,49.15
2022-10-14T06:13:42.631Z,46.45
2022-10-14T06:16:11.838Z,49.65
2022-10-14T06:18:40.435Z,50.05
2022-10-14T06:21:08.690Z,50.17
2022-10-14T06:23:36.871Z,50.60
2022-10-14T06:26:09.039Z,50.13
2022-10-14T06:28:37.319Z,46.40
2022-10-14T06:31:05.713Z,49.10
2022-10-14T06:33:34.010Z,46.00
2022-10-14T06:36:03.937Z,47.00
2022-10-14T06:38:32.349Z,46.72
2022-10-14T06:41:00.459Z,47.15
2022-10-14T06:43:30.104Z,47.38
2022-10-14T06:45:59.627Z,46.45
2022-10-14T06:48:27.782Z,46.92
2022-10-14T06:50:55.985Z,44.75
2022-10-14T06:53:23.999Z,44.60
2022-10-14T06:55:58.750Z,46.38
2022-10-14T06:58:26.849Z,43.10
2022-10-14T07:03:29.285Z,45.90
2022-10-14T07:05:57.356Z,43.75
2022-10-14T07:08:25.318Z,42.72
2022-10-14T07:10:53.331Z,42.17
2022-10-14T07:13:21.460Z,40.60
2022-10-14T07:15:49.941Z,38.08
2022-10-14T07:18:19.781Z,41.38
2022-10-14T07:20:47.845Z,35.28
2022-10-14T07:23:15.943Z,37.25
2022-10-14T07:25:44.060Z,34.85
2022-10-14T07:28:12.219Z,33.55
2022-10-14T07:30:40.569Z,32.78
2022-10-14T07:33:08.745Z,37.20
2022-10-14T07:35:40.092Z,34.53
2022-10-14T07:38:08.085Z,34.63
2022-10-14T07:40:36.365Z,33.53
2022-10-14T07:43:04.402Z,34.38
2022-10-14T07:45:35.721Z,33.70
2022-10-14T07:48:04.116Z,29.63
2022-10-14T07:50:32.116Z,30.48
2022-10-14T07:53:01.775Z,32.78
2022-10-14T07:55:29.820Z,32.70
2022-10-14T07:57:57.856Z,32.08
2022-10-14T08:00:28.568Z,31.13
2022-10-14T08:02:56.719Z,29.30
2022-10-14T08:05:37.681Z,30.63
2022-10-14T08:08:08.319Z,31.88
2022-10-14T08:10:37.147Z,32.20
2022-10-14T08:13:05.860Z,30.48
2022-10-14T08:15:37.983Z,28.35
2022-10-14T08:18:06.707Z,27.95
2022-10-14T08:20:35.792Z,27.83
2022-10-14T08:23:04.036Z,27.10
2022-10-14T08:25:33.362Z,28.63
2022-10-14T08:28:01.509Z,25.42
2022-10-14T08:30:29.553Z,24.30
2022-10-14T08:32:57.669Z,26.55
2022-10-14T08:35:25.695Z,23.58
2022-10-14T08:37:58.425Z,23.92
2022-10-14T08:40:28.507Z,23.33
2022-10-14T08:43:02.861Z,22.00
2022-10-14T08:48:07.176Z,20.63
2022-10-14T08:50:38.946Z,23.98
2022-10-14T08:53:13.073Z,25.70
2022-10-14T08:55:56.202Z,24.13
2022-10-14T08:58:29.579Z,22.73
2022-10-14T09:00:57.989Z,23.63
2022-10-14T09:03:33.438Z,21.05
2022-10-14T09:06:03.795Z,20.40
2022-10-14T09:08:34.820Z,22.30
2022-10-14T09:11:03.340Z,21.60
2022-10-14T09:13:38.285Z,23.38
2022-10-14T09:16:10.550Z,23.08
2022-10-14T09:18:54.600Z,20.55
2022-10-14T09:24:26.475Z,20.75
2022-10-14T09:26:59.039Z,20.25
2022-10-14T09:29:30.712Z,20.63
2022-10-14T09:32:02.625Z,20.23
2022-10-14T09:34:35.215Z,21.52
2022-10-14T09:37:22.593Z,21.73
2022-10-14T09:39:52.723Z,20.42
2022-10-14T09:42:25.342Z,18.50
2022-10-14T09:45:10.993Z,17.95
2022-10-14T09:47:47.435Z,15.00
2022-10-14T09:50:27.992Z,15.00
2022-10-14T09:53:02.578Z,18.70
2022-10-14T09:55:31.475Z,14.18
2022-10-14T09:58:09.251Z,15.35
2022-10-14T10:00:39.339Z,13.60
2022-10-14T10:03:08.096Z,14.95
2022-10-14T10:05:37.056Z,13.55
2022-10-14T10:08:15.606Z,16.95
2022-10-14T10:10:59.540Z,12.32
2022-10-14T10:13:35.639Z,13.57
2022-10-14T10:16:07.251Z,13.52
2022-10-14T10:18:35.619Z,15.85
2022-10-14T10:21:07.798Z,16.85
2022-10-14T10:23:37.555Z,7.93
2022-10-14T10:26:18.200Z,9.75
2022-10-14T10:28:47.419Z,14.13
2022-10-14T10:31:33.175Z,10.90
2022-10-14T10:34:10.613Z,7.05
2022-10-14T10:36:43.607Z,5.63
2022-10-14T10:39:22.496Z,5.03
2022-10-14T10:42:02.627Z,5.60
2022-10-14T10:44:40.511Z,7.93
2022-10-14T10:47:31.561Z,6.00
2022-10-14T10:50:17.056Z,7.82
2022-10-14T10:53:01.176Z,6.38
2022-10-14T10:55:39.837Z,11.52
2022-10-14T10:58:20.619Z,7.53
2022-10-14T11:00:55.089Z,11.40
2022-10-14T11:03:37.516Z,10.07
2022-10-14T11:06:10.708Z,9.38
2022-10-14T11:09:16.271Z,7.68
2022-10-14T11:12:07.833Z,11.50
2022-10-14T11:14:56.988Z,10.95
2022-10-14T11:17:35.052Z,9.93
2022-10-14T11:20:18.818Z,9.77
2022-10-14T11:22:56.823Z,12.03
2022-10-14T11:25:34.151Z,11.05
2022-10-14T11:28:10.638Z,9.80
2022-10-14T11:30:46.200Z,10.00
2022-10-14T11:33:29.506Z,10.43
2022-10-14T11:36:13.072Z,10.63
2022-10-14T11:39:12.001Z,9.10
2022-10-14T11:41:54.781Z,8.20
2022-10-14T11:44:29.978Z,8.52
2022-10-14T11:47:03.105Z,9.40
2022-10-14T11:49:35.021Z,12.23
2022-10-14T11:52:08.523Z,13.35
2022-10-14T11:54:41.140Z,14.23
2022-10-14T11:57:20.138Z,13.27
2022-10-14T12:00:08.751Z,15.18
2022-10-14T12:02:48.679Z,14.88
2022-10-14T12:05:22.496Z,14.68
2022-10-14T12:08:04.947Z,13.55
2022-10-14T12:10:36.798Z,14.15
2022-10-14T12:13:08.109Z,15.90
2022-10-14T12:15:38.920Z,14.60
2022-10-14T12:18:08.363Z,14.40
2022-10-14T12:20:41.677Z,17.10
2022-10-14T12:23:17.097Z,14.18
2022-10-14T12:25:52.267Z,15.40
2022-10-14T12:28:21.993Z,18.92
2022-10-14T12:30:51.663Z,15.23
2022-10-14T12:33:22.895Z,14.45
2022-10-14T12:35:59.188Z,17.45
2022-10-14T12:38:30.329Z,15.80
2022-10-14T12:41:32.244Z,14.50
2022-10-14T12:44:02.520Z,16.27
2022-10-14T12:46:31.451Z,16.27
2022-10-14T12:49:00.509Z,16.38
2022-10-14T12:51:28.671Z,14.30
2022-10-14T12:54:08.635Z,12.73
2022-10-14T12:56:40.541Z,11.68
2022-10-14T12:59:18.431Z,13.20
2022-10-14T13:01:46.630Z,13.70
2022-10-14T13:04:20.252Z,11.40
2022-10-14T13:07:39.669Z,12.73
2022-10-14T13:10:46.976Z,11.05
2022-10-14T13:13:52.414Z,11.70
2022-10-14T13:16:59.202Z,12.10
2022-10-14T13:19:44.649Z,9.25
2022-10-14T13:22:40.747Z,10.57
2022-10-14T13:25:21.446Z,10.35
2022-10-14T13:28:07.433Z,8.38
2022-10-14T13:30:46.771Z,7.40
2022-10-14T13:33:21.638Z,8.70
2022-10-14T13:35:58.078Z,8.60
2022-10-14T13:38:26.302Z,9.20
2022-10-14T13:40:56.660Z,8.20
2022-10-14T13:43:30.363Z,8.80
2022-10-14T13:46:07.963Z,7.50
2022-10-14T13:48:40.333Z,9.70
2022-10-14T13:51:36.913Z,8.00
2022-10-14T13:54:18.681Z,8.60
2022-10-14T13:57:34.728Z,7.80
2022-10-14T14:02:43.661Z,7.38
2022-10-14T14:05:16.997Z,7.65
2022-10-14T14:10:39.184Z,7.85
2022-10-14T14:13:15.144Z,6.82
2022-10-14T14:15:50.901Z,5.18
2022-10-14T14:18:49.476Z,6.50
2022-10-14T14:21:28.128Z,6.20
2022-10-14T14:23:58.783Z,7.00
2022-10-14T14:26:35.158Z,7.45
2022-10-14T14:29:05.808Z,6.68
2022-10-14T14:34:25.225Z,6.95
2022-10-14T14:37:01.388Z,5.55
2022-10-14T14:39:34.974Z,6.05
2022-10-14T14:42:03.045Z,5.15
2022-10-14T14:44:34.661Z,6.70
2022-10-14T14:47:05.149Z,5.95
2022-10-14T14:49:36.664Z,6.18
2022-10-14T14:52:06.838Z,6.18
2022-10-14T14:54:35.089Z,5.00
2022-10-14T14:57:05.773Z,5.30
2022-10-14T14:59:37.118Z,5.05
2022-10-14T15:02:14.554Z,5.07
2022-10-14T15:04:48.031Z,5.07
2022-10-14T15:07:21.516Z,5.97
2022-10-14T15:09:53.900Z,5.07
2022-10-14T15:12:25.165Z,4.28
2022-10-14T15:14:54.687Z,5.60
2022-10-14T15:17:29.204Z,5.07
2022-10-14T15:20:01.411Z,5.10
2022-10-14T15:22:35.313Z,5.43
2022-10-14T15:27:50.477Z,4.63
2022-10-14T15:30:31.914Z,4.55
2022-10-14T15:33:03.206Z,4.78
2022-10-14T15:35:31.561Z,4.20
2022-10-14T15:37:59.754Z,4.20
2022-10-14T15:40:30.057Z,4.78
2022-10-14T15:42:58.467Z,4.00
2022-10-14T15:45:27.408Z,4.55
2022-10-14T15:48:01.599Z,3.50
2022-10-14T15:50:31.355Z,4.22
2022-10-14T15:52:59.939Z,4.10
2022-10-14T15:55:35.922Z,4.30
2022-10-14T15:58:06.973Z,4.00
2022-10-14T16:00:35.440Z,3.85
2022-10-14T16:03:06.749Z,4.03
2022-10-14T16:05:36.793Z,3.80
2022-10-14T16:08:12.143Z,4.05
2022-10-14T16:10:40.217Z,4.47
2022-10-14T16:13:08.252Z,4.47
2022-10-14T16:15:40.917Z,4.78
2022-10-14T16:18:09.128Z,4.50
2022-10-14T16:20:39.175Z,4.55
2022-10-14T16:23:07.629Z,4.95
2022-10-14T16:25:39.348Z,4.85
2022-10-14T16:28:10.160Z,4.90
2022-10-14T16:30:40.501Z,4.90
2022-10-14T16:33:08.963Z,4.40
2022-10-14T16:35:38.395Z,4.75
2022-10-14T16:38:06.564Z,4.40
2022-10-14T16:40:36.769Z,3.75
2022-10-14T16:43:07.170Z,2.80
2022-10-14T16:45:35.281Z,2.60
2022-10-14T16:48:03.550Z,2.38
2022-10-14T16:50:31.595Z,1.95
2022-10-14T16:53:18.545Z,1.83
2022-10-14T16:55:46.699Z,2.03
2022-10-14T16:58:14.682Z,2.10
2022-10-14T17:00:43.136Z,2.22
2022-10-14T17:03:12.433Z,2.20
2022-10-14T17:05:40.705Z,2.40
2022-10-14T17:08:10.819Z,2.17
2022-10-14T17:10:39.812Z,1.95
2022-10-14T17:13:08.301Z,2.20
2022-10-14T17:15:39.513Z,2.63
2022-10-14T17:18:11.001Z,1.90
2022-10-14T17:20:40.492Z,2.13
2022-10-14T17:23:10.595Z,1.90
2022-10-14T17:25:40.878Z,2.17
2022-10-14T17:28:10.548Z,2.13
2022-10-14T17:30:38.937Z,2.30
2022-10-14T17:33:06.909Z,2.38
2022-10-14T17:35:35.175Z,2.28
2022-10-14T17:38:03.351Z,2.20
2022-10-14T17:40:33.907Z,2.10
2022-10-14T17:43:02.361Z,2.47
2022-10-14T17:45:31.564Z,2.65
2022-10-14T17:47:59.800Z,2.08
2022-10-14T17:50:28.228Z,2.50
2022-10-14T17:52:58.818Z,2.28
2022-10-14T17:55:26.981Z,2.40
2022-10-14T17:57:56.329Z,2.45
2022-10-14T18:00:24.914Z,2.63
2022-10-14T18:02:52.910Z,2.40
2022-10-14T18:05:21.050Z,2.60
2022-10-14T18:07:49.186Z,3.25
2022-10-14T18:10:17.388Z,2.55
2022-10-14T18:12:45.413Z,2.95
2022-10-14T18:15:14.886Z,2.60
2022-10-14T18:17:43.046Z,3.00
2022-10-14T18:20:11.298Z,2.85
2022-10-14T18:22:40.098Z,3.40
2022-10-14T18:25:08.846Z,2.95
2022-10-14T18:27:36.804Z,3.08
2022-10-14T18:30:05.610Z,3.80
2022-10-14T18:32:35.065Z,3.55
2022-10-14T18:35:03.307Z,3.03
2022-10-14T18:37:31.401Z,3.30
2022-10-14T18:39:59.693Z,3.50
2022-10-14T18:42:27.870Z,3.35
2022-10-14T18:44:56.383Z,4.30
2022-10-14T18:47:24.404Z,3.42
2022-10-14T18:49:53.944Z,3.80
2022-10-14T18:52:22.098Z,3.60
2022-10-14T18:54:50.552Z,3.90
2022-10-14T18:57:19.078Z,4.55
2022-10-14T18:59:47.850Z,3.88
2022-10-14T19:02:16.126Z,4.57
2022-10-14T19:04:44.430Z,4.28
2022-10-14T19:07:13.780Z,4.20
2022-10-14T19:09:41.905Z,4.57
2022-10-14T19:12:24.308Z,5.15
2022-10-14T19:14:52.596Z,5.13
2022-10-14T19:17:22.286Z,4.57
2022-10-14T19:19:50.611Z,4.80
2022-10-14T19:22:20.193Z,5.43
2022-10-14T19:24:48.449Z,5.40
2022-10-14T19:27:16.744Z,5.97
2022-10-14T19:29:45.029Z,5.40
2022-10-14T19:32:13.026Z,5.25
2022-10-14T19:34:46.266Z,5.93
2022-10-14T19:37:15.253Z,5.95
2022-10-14T19:39:44.682Z,6.07
2022-10-14T19:42:12.691Z,6.75
2022-10-14T19:44:41.039Z,6.70
2022-10-14T19:47:09.107Z,6.88
2022-10-14T19:49:37.389Z,6.55
2022-10-14T19:52:05.968Z,7.00
2022-10-14T19:54:33.981Z,6.40
2022-10-14T19:57:03.353Z,6.70
2022-10-14T19:59:31.355Z,7.22
2022-10-14T20:01:59.321Z,7.68
2022-10-14T20:04:27.659Z,7.72
2022-10-14T20:06:56.811Z,7.60
2022-10-14T20:09:24.937Z,8.48
2022-10-14T20:11:53.561Z,7.88
2022-10-14T20:14:23.905Z,8.95
2022-10-14T20:16:54.994Z,7.93
2022-10-14T20:19:24.134Z,9.05
2022-10-14T20:21:52.129Z,8.38
2022-10-14T20:24:20.501Z,9.20
2022-10-14T20:26:48.548Z,9.27
2022-10-14T20:29:16.686Z,8.85
2022-10-14T20:31:46.597Z,8.93
2022-10-14T20:34:15.041Z,9.80
2022-10-14T20:36:43.003Z,9.95
2022-10-14T20:39:11.189Z,10.10
2022-10-14T20:41:39.442Z,9.93
2022-10-14T20:44:07.592Z,9.48
2022-10-14T20:46:35.731Z,9.93
2022-10-14T20:49:05.061Z,9.60
2022-10-14T20:51:33.178Z,15.90
2022-10-14T20:54:04.087Z,9.98
2022-10-14T20:56:34.817Z,9.82
2022-10-14T20:59:05.840Z,10.70
2022-10-14T21:01:35.441Z,11.05
2022-10-14T21:04:07.227Z,10.93
2022-10-14T21:06:36.432Z,10.13
2022-10-14T21:09:04.732Z,10.15
2022-10-14T21:11:32.858Z,10.40
2022-10-14T21:14:01.966Z,10.20
2022-10-14T21:16:31.775Z,10.40
2022-10-14T21:19:01.940Z,10.88
2022-10-14T21:21:35.004Z,11.00
2022-10-14T21:24:03.037Z,11.10
2022-10-14T21:26:31.941Z,11.82
2022-10-14T21:29:02.244Z,11.00
2022-10-14T21:31:30.569Z,10.50
2022-10-14T21:34:05.380Z,10.82
2022-10-14T21:36:37.006Z,11.90
2022-10-14T21:39:08.918Z,11.07
2022-10-14T21:41:37.782Z,10.07
2022-10-14T21:44:06.581Z,10.85
2022-10-14T21:46:35.415Z,12.50
2022-10-14T21:49:03.728Z,11.75
2022-10-14T21:51:32.642Z,12.88
2022-10-14T21:54:02.028Z,12.18
2022-10-14T21:56:30.161Z,13.60
2022-10-14T21:58:58.349Z,12.93
2022-10-14T22:01:28.093Z,12.82
2022-10-14T22:03:57.962Z,13.30
2022-10-14T22:06:27.135Z,14.30
2022-10-14T22:08:56.815Z,13.10
2022-10-14T22:11:28.578Z,11.82
2022-10-14T22:13:58.178Z,12.77
2022-10-14T22:16:28.804Z,13.20
2022-10-14T22:18:59.727Z,11.30
2022-10-14T22:21:29.884Z,14.25
2022-10-14T22:23:58.615Z,13.65
2022-10-14T22:26:29.975Z,12.70
2022-10-14T22:28:59.949Z,12.88
2022-10-14T22:31:29.485Z,12.88
2022-10-14T22:33:57.618Z,13.15
2022-10-14T22:36:28.246Z,13.32
2022-10-14T22:38:58.082Z,12.93
2022-10-14T22:41:30.926Z,13.70
2022-10-14T22:44:05.136Z,15.38
2022-10-14T22:46:35.368Z,13.25
2022-10-14T22:49:03.770Z,14.43
2022-10-14T22:51:33.798Z,14.52
2022-10-14T22:54:02.322Z,14.90
2022-10-14T22:56:32.068Z,15.80
2022-10-14T22:59:01.585Z,15.68
2022-10-14T23:01:31.540Z,16.70
2022-10-14T23:04:00.693Z,18.17
2022-10-14T23:06:29.761Z,17.75
2022-10-14T23:08:59.919Z,17.58
2022-10-14T23:11:29.293Z,17.63
2022-10-14T23:13:59.096Z,19.33
2022-10-14T23:16:30.813Z,20.50
2022-10-14T23:18:59.794Z,21.10
2022-10-14T23:21:29.738Z,18.80
2022-10-14T23:23:59.575Z,20.80
2022-10-14T23:26:31.449Z,20.30
2022-10-14T23:29:00.293Z,23.40
2022-10-14T23:31:31.889Z,23.50
2022-10-14T23:34:01.046Z,22.55
2022-10-14T23:36:29.541Z,24.13
2022-10-14T23:38:59.589Z,24.60
2022-10-14T23:41:28.015Z,23.88
2022-10-14T23:43:56.997Z,24.13
2022-10-14T23:46:25.217Z,23.80
2022-10-14T23:49:07.759Z,23.38
2022-10-14T23:51:42.447Z,24.90
2022-10-14T23:54:10.731Z,25.60
2022-10-14T23:56:38.794Z,25.02
2022-10-14T23:59:07.180Z,29.95
